sensor_id;sensor_type;location;lat;lon;timestamp;temperature;humidity
26541;DHT22;14206;50.202;10.948;2022-12-07T00:01:17;3.90;96.60
26541;DHT22;14206;50.202;10.948;2022-12-07T00:03:45;3.90;96.60
26541;DHT22;14206;50.202;10.948;2022-12-07T00:06:14;3.90;96.60
26541;DHT22;14206;50.202;10.948;2022-12-07T00:08:41;3.90;96.60
26541;DHT22;14206;50.202;10.948;2022-12-07T00:11:11;3.90;96.60
26541;DHT22;14206;50.202;10.948;2022-12-07T00:13:39;3.90;96.60
26541;DHT22;14206;50.202;10.948;2022-12-07T00:16:08;3.90;96.60
26541;DHT22;14206;50.202;10.948;2022-12-07T00:18:36;3.90;96.60
26541;DHT22;14206;50.202;10.948;2022-12-07T00:21:26;4.00;96.60
26541;DHT22;14206;50.202;10.948;2022-12-07T00:23:53;4.00;96.60
26541;DHT22;14206;50.202;10.948;2022-12-07T00:26:23;3.90;96.60
26541;DHT22;14206;50.202;10.948;2022-12-07T00:28:53;3.90;96.60
26541;DHT22;14206;50.202;10.948;2022-12-07T00:31:22;3.90;96.60
26541;DHT22;14206;50.202;10.948;2022-12-07T00:33:50;3.90;96.60
26541;DHT22;14206;50.202;10.948;2022-12-07T00:36:19;3.90;96.60
26541;DHT22;14206;50.202;10.948;2022-12-07T00:38:53;3.90;96.60
26541;DHT22;14206;50.202;10.948;2022-12-07T00:41:23;3.80;96.60
26541;DHT22;14206;50.202;10.948;2022-12-07T00:43:50;3.70;96.60
26541;DHT22;14206;50.202;10.948;2022-12-07T00:46:18;3.50;96.60
26541;DHT22;14206;50.202;10.948;2022-12-07T00:48:46;3.50;96.60
26541;DHT22;14206;50.202;10.948;2022-12-07T00:51:15;3.40;96.60
26541;DHT22;14206;50.202;10.948;2022-12-07T00:53:42;3.40;96.60
26541;DHT22;14206;50.202;10.948;2022-12-07T00:56:12;3.50;96.60
26541;DHT22;14206;50.202;10.948;2022-12-07T00:58:40;3.60;96.60
26541;DHT22;14206;50.202;10.948;2022-12-07T01:01:08;3.70;96.60
26541;DHT22;14206;50.202;10.948;2022-12-07T01:03:36;3.70;96.60
26541;DHT22;14206;50.202;10.948;2022-12-07T01:06:04;3.80;96.60
26541;DHT22;14206;50.202;10.948;2022-12-07T01:08:31;3.80;96.60
26541;DHT22;14206;50.202;10.948;2022-12-07T01:11:07;3.90;96.60
26541;DHT22;14206;50.202;10.948;2022-12-07T01:13:36;3.90;96.60
26541;DHT22;14206;50.202;10.948;2022-12-07T01:16:04;3.90;96.60
26541;DHT22;14206;50.202;10.948;2022-12-07T01:18:34;3.90;96.60
26541;DHT22;14206;50.202;10.948;2022-12-07T01:21:05;3.90;96.60
26541;DHT22;14206;50.202;10.948;2022-12-07T01:23:35;3.90;96.60
26541;DHT22;14206;50.202;10.948;2022-12-07T01:26:05;3.90;96.60
26541;DHT22;14206;50.202;10.948;2022-12-07T01:28:32;3.90;96.60
26541;DHT22;14206;50.202;10.948;2022-12-07T01:31:02;3.90;96.60
26541;DHT22;14206;50.202;10.948;2022-12-07T01:33:32;3.90;96.60
26541;DHT22;14206;50.202;10.948;2022-12-07T01:38:33;3.70;96.60
26541;DHT22;14206;50.202;10.948;2022-12-07T01:41:01;3.70;96.60
26541;DHT22;14206;50.202;10.948;2022-12-07T01:43:30;3.80;96.60
26541;DHT22;14206;50.202;10.948;2022-12-07T01:45:58;3.80;96.60
26541;DHT22;14206;50.202;10.948;2022-12-07T01:48:33;3.80;96.60
26541;DHT22;14206;50.202;10.948;2022-12-07T01:51:09;3.80;96.60
26541;DHT22;14206;50.202;10.948;2022-12-07T01:53:41;3.80;96.60
26541;DHT22;14206;50.202;10.948;2022-12-07T01:56:12;3.70;96.60
26541;DHT22;14206;50.202;10.948;2022-12-07T01:58:42;3.80;96.60
26541;DHT22;14206;50.202;10.948;2022-12-07T02:01:09;3.80;96.60
26541;DHT22;14206;50.202;10.948;2022-12-07T02:03:40;3.80;96.60
26541;DHT22;14206;50.202;10.948;2022-12-07T02:06:08;3.50;96.60
26541;DHT22;14206;50.202;10.948;2022-12-07T02:08:35;3.40;96.60
26541;DHT22;14206;50.202;10.948;2022-12-07T02:11:03;3.20;96.60
26541;DHT22;14206;50.202;10.948;2022-12-07T02:13:35;3.00;96.60
26541;DHT22;14206;50.202;10.948;2022-12-07T02:16:12;2.90;96.60
26541;DHT22;14206;50.202;10.948;2022-12-07T02:32:45;2.90;96.60
26541;DHT22;14206;50.202;10.948;2022-12-07T02:35:17;2.90;96.60
26541;DHT22;14206;50.202;10.948;2022-12-07T02:43:24;3.10;96.60
26541;DHT22;14206;50.202;10.948;2022-12-07T02:45:55;3.10;96.60
26541;DHT22;14206;50.202;10.948;2022-12-07T02:48:23;3.20;96.60
26541;DHT22;14206;50.202;10.948;2022-12-07T02:50:52;3.20;96.60
26541;DHT22;14206;50.202;10.948;2022-12-07T02:53:37;3.20;96.60
26541;DHT22;14206;50.202;10.948;2022-12-07T03:04:02;3.40;96.60
26541;DHT22;14206;50.202;10.948;2022-12-07T03:06:40;3.40;96.60
26541;DHT22;14206;50.202;10.948;2022-12-07T03:09:21;3.50;96.60
26541;DHT22;14206;50.202;10.948;2022-12-07T03:11:56;3.50;96.60
26541;DHT22;14206;50.202;10.948;2022-12-07T03:14:33;3.50;96.60
26541;DHT22;14206;50.202;10.948;2022-12-07T03:17:14;3.50;96.60
26541;DHT22;14206;50.202;10.948;2022-12-07T03:19:44;3.50;96.60
26541;DHT22;14206;50.202;10.948;2022-12-07T03:22:13;3.60;96.60
26541;DHT22;14206;50.202;10.948;2022-12-07T03:25:10;3.70;96.60
26541;DHT22;14206;50.202;10.948;2022-12-07T03:27:39;3.70;96.60
26541;DHT22;14206;50.202;10.948;2022-12-07T03:30:13;3.70;96.60
26541;DHT22;14206;50.202;10.948;2022-12-07T03:32:45;3.70;96.60
26541;DHT22;14206;50.202;10.948;2022-12-07T03:35:21;3.60;96.60
26541;DHT22;14206;50.202;10.948;2022-12-07T03:37:57;3.60;96.60
26541;DHT22;14206;50.202;10.948;2022-12-07T03:42:59;3.60;96.60
26541;DHT22;14206;50.202;10.948;2022-12-07T03:45:48;3.60;96.60
26541;DHT22;14206;50.202;10.948;2022-12-07T03:48:28;3.60;96.60
26541;DHT22;14206;50.202;10.948;2022-12-07T03:53:35;3.40;96.60
26541;DHT22;14206;50.202;10.948;2022-12-07T03:56:03;3.40;96.60
26541;DHT22;14206;50.202;10.948;2022-12-07T03:58:31;3.30;96.60
26541;DHT22;14206;50.202;10.948;2022-12-07T04:00:58;3.20;96.60
26541;DHT22;14206;50.202;10.948;2022-12-07T04:03:25;3.10;96.60
26541;DHT22;14206;50.202;10.948;2022-12-07T04:05:53;3.10;96.60
26541;DHT22;14206;50.202;10.948;2022-12-07T04:08:20;3.00;96.60
26541;DHT22;14206;50.202;10.948;2022-12-07T04:10:47;3.00;96.60
26541;DHT22;14206;50.202;10.948;2022-12-07T04:13:14;3.00;96.60
26541;DHT22;14206;50.202;10.948;2022-12-07T04:15:40;3.00;96.60
26541;DHT22;14206;50.202;10.948;2022-12-07T04:18:07;3.00;96.60
26541;DHT22;14206;50.202;10.948;2022-12-07T04:20:34;3.00;96.60
26541;DHT22;14206;50.202;10.948;2022-12-07T04:23:01;3.00;96.60
26541;DHT22;14206;50.202;10.948;2022-12-07T04:25:28;3.00;96.60
26541;DHT22;14206;50.202;10.948;2022-12-07T04:27:55;3.00;96.60
26541;DHT22;14206;50.202;10.948;2022-12-07T04:30:22;3.00;96.60
26541;DHT22;14206;50.202;10.948;2022-12-07T04:32:48;3.00;96.60
26541;DHT22;14206;50.202;10.948;2022-12-07T04:35:15;3.00;96.60
26541;DHT22;14206;50.202;10.948;2022-12-07T04:37:42;3.00;96.60
26541;DHT22;14206;50.202;10.948;2022-12-07T04:40:09;3.00;96.60
26541;DHT22;14206;50.202;10.948;2022-12-07T04:42:38;3.00;96.60
26541;DHT22;14206;50.202;10.948;2022-12-07T04:45:05;3.00;96.60
26541;DHT22;14206;50.202;10.948;2022-12-07T04:47:32;3.00;96.60
26541;DHT22;14206;50.202;10.948;2022-12-07T04:49:59;3.00;96.60
26541;DHT22;14206;50.202;10.948;2022-12-07T04:52:26;3.00;96.60
26541;DHT22;14206;50.202;10.948;2022-12-07T04:54:53;3.10;96.60
26541;DHT22;14206;50.202;10.948;2022-12-07T04:57:20;3.10;96.60
26541;DHT22;14206;50.202;10.948;2022-12-07T04:59:47;3.00;96.60
26541;DHT22;14206;50.202;10.948;2022-12-07T05:02:14;3.00;96.60
26541;DHT22;14206;50.202;10.948;2022-12-07T05:04:41;3.00;96.60
26541;DHT22;14206;50.202;10.948;2022-12-07T05:07:07;3.00;96.60
26541;DHT22;14206;50.202;10.948;2022-12-07T05:09:34;3.00;96.60
26541;DHT22;14206;50.202;10.948;2022-12-07T05:12:01;2.90;96.60
26541;DHT22;14206;50.202;10.948;2022-12-07T05:14:28;2.90;96.60
26541;DHT22;14206;50.202;10.948;2022-12-07T05:16:55;2.80;96.60
26541;DHT22;14206;50.202;10.948;2022-12-07T05:19:21;2.80;96.60
26541;DHT22;14206;50.202;10.948;2022-12-07T05:21:48;2.80;96.60
26541;DHT22;14206;50.202;10.948;2022-12-07T05:24:16;2.90;96.60
26541;DHT22;14206;50.202;10.948;2022-12-07T05:26:44;2.90;96.60
26541;DHT22;14206;50.202;10.948;2022-12-07T05:29:12;2.90;96.60
26541;DHT22;14206;50.202;10.948;2022-12-07T05:31:40;2.90;96.60
26541;DHT22;14206;50.202;10.948;2022-12-07T05:34:07;2.90;96.60
26541;DHT22;14206;50.202;10.948;2022-12-07T05:36:34;2.90;96.60
26541;DHT22;14206;50.202;10.948;2022-12-07T05:39:01;2.90;96.60
26541;DHT22;14206;50.202;10.948;2022-12-07T05:41:27;2.90;96.60
26541;DHT22;14206;50.202;10.948;2022-12-07T05:44:13;3.00;96.60
26541;DHT22;14206;50.202;10.948;2022-12-07T05:46:40;3.00;96.60
26541;DHT22;14206;50.202;10.948;2022-12-07T05:49:07;3.00;96.60
26541;DHT22;14206;50.202;10.948;2022-12-07T05:51:34;3.00;96.60
26541;DHT22;14206;50.202;10.948;2022-12-07T05:54:01;3.10;96.60
26541;DHT22;14206;50.202;10.948;2022-12-07T05:56:27;3.10;96.60
26541;DHT22;14206;50.202;10.948;2022-12-07T05:58:54;3.10;96.60
26541;DHT22;14206;50.202;10.948;2022-12-07T06:01:39;3.10;96.60
26541;DHT22;14206;50.202;10.948;2022-12-07T06:04:07;3.10;96.60
26541;DHT22;14206;50.202;10.948;2022-12-07T06:06:33;3.20;96.60
26541;DHT22;14206;50.202;10.948;2022-12-07T06:09:00;3.20;96.60
26541;DHT22;14206;50.202;10.948;2022-12-07T06:11:27;3.20;96.60
26541;DHT22;14206;50.202;10.948;2022-12-07T06:14:13;3.20;96.60
26541;DHT22;14206;50.202;10.948;2022-12-07T06:16:40;3.20;96.60
26541;DHT22;14206;50.202;10.948;2022-12-07T06:19:07;3.20;96.60
26541;DHT22;14206;50.202;10.948;2022-12-07T06:21:34;3.30;96.60
26541;DHT22;14206;50.202;10.948;2022-12-07T06:24:01;3.30;96.60
26541;DHT22;14206;50.202;10.948;2022-12-07T06:26:28;3.30;96.60
26541;DHT22;14206;50.202;10.948;2022-12-07T06:28:55;3.30;96.60
26541;DHT22;14206;50.202;10.948;2022-12-07T06:31:22;3.30;96.60
26541;DHT22;14206;50.202;10.948;2022-12-07T06:33:49;3.40;96.60
26541;DHT22;14206;50.202;10.948;2022-12-07T06:36:15;3.40;96.60
26541;DHT22;14206;50.202;10.948;2022-12-07T06:38:42;3.40;96.60
26541;DHT22;14206;50.202;10.948;2022-12-07T06:41:09;3.40;96.60
26541;DHT22;14206;50.202;10.948;2022-12-07T06:43:36;3.40;96.60
26541;DHT22;14206;50.202;10.948;2022-12-07T06:46:03;3.50;96.60
26541;DHT22;14206;50.202;10.948;2022-12-07T06:48:29;3.50;96.60
26541;DHT22;14206;50.202;10.948;2022-12-07T06:50:56;3.50;96.60
26541;DHT22;14206;50.202;10.948;2022-12-07T06:53:23;3.50;96.60
26541;DHT22;14206;50.202;10.948;2022-12-07T06:55:50;3.50;96.60
26541;DHT22;14206;50.202;10.948;2022-12-07T06:58:17;3.60;96.60
26541;DHT22;14206;50.202;10.948;2022-12-07T07:00:45;3.50;96.60
26541;DHT22;14206;50.202;10.948;2022-12-07T07:03:12;3.50;96.60
26541;DHT22;14206;50.202;10.948;2022-12-07T07:05:39;3.60;96.60
26541;DHT22;14206;50.202;10.948;2022-12-07T07:08:05;3.60;96.60
26541;DHT22;14206;50.202;10.948;2022-12-07T07:10:49;3.50;96.60
26541;DHT22;14206;50.202;10.948;2022-12-07T07:13:16;3.50;96.60
26541;DHT22;14206;50.202;10.948;2022-12-07T07:15:43;3.60;96.60
26541;DHT22;14206;50.202;10.948;2022-12-07T07:18:10;3.60;96.60
26541;DHT22;14206;50.202;10.948;2022-12-07T07:20:37;3.60;96.60
26541;DHT22;14206;50.202;10.948;2022-12-07T07:23:04;3.60;96.60
26541;DHT22;14206;50.202;10.948;2022-12-07T07:25:32;3.60;96.60
26541;DHT22;14206;50.202;10.948;2022-12-07T07:27:58;3.70;96.60
26541;DHT22;14206;50.202;10.948;2022-12-07T07:30:26;3.70;96.60
26541;DHT22;14206;50.202;10.948;2022-12-07T07:33:01;3.70;96.60
26541;DHT22;14206;50.202;10.948;2022-12-07T07:35:28;3.70;96.60
26541;DHT22;14206;50.202;10.948;2022-12-07T07:37:55;3.70;96.60
26541;DHT22;14206;50.202;10.948;2022-12-07T07:40:22;3.70;96.60
26541;DHT22;14206;50.202;10.948;2022-12-07T07:42:51;3.70;96.60
26541;DHT22;14206;50.202;10.948;2022-12-07T07:45:19;3.70;96.60
26541;DHT22;14206;50.202;10.948;2022-12-07T07:47:46;3.80;96.60
26541;DHT22;14206;50.202;10.948;2022-12-07T07:50:13;3.80;96.60
26541;DHT22;14206;50.202;10.948;2022-12-07T07:52:39;3.80;96.60
26541;DHT22;14206;50.202;10.948;2022-12-07T07:55:06;3.80;96.60
26541;DHT22;14206;50.202;10.948;2022-12-07T07:57:36;3.80;96.60
26541;DHT22;14206;50.202;10.948;2022-12-07T08:00:08;3.80;96.60
26541;DHT22;14206;50.202;10.948;2022-12-07T08:02:39;3.80;96.60
26541;DHT22;14206;50.202;10.948;2022-12-07T08:05:07;3.90;96.60
26541;DHT22;14206;50.202;10.948;2022-12-07T08:07:34;3.90;96.60
26541;DHT22;14206;50.202;10.948;2022-12-07T08:10:01;4.00;96.60
26541;DHT22;14206;50.202;10.948;2022-12-07T08:12:28;4.00;96.60
26541;DHT22;14206;50.202;10.948;2022-12-07T08:14:55;4.10;96.60
26541;DHT22;14206;50.202;10.948;2022-12-07T08:17:22;4.10;96.60
26541;DHT22;14206;50.202;10.948;2022-12-07T08:19:48;4.20;96.60
26541;DHT22;14206;50.202;10.948;2022-12-07T08:22:15;4.20;96.60
26541;DHT22;14206;50.202;10.948;2022-12-07T08:24:42;4.20;96.60
26541;DHT22;14206;50.202;10.948;2022-12-07T08:27:09;4.20;96.60
26541;DHT22;14206;50.202;10.948;2022-12-07T08:29:36;4.20;96.60
26541;DHT22;14206;50.202;10.948;2022-12-07T08:32:03;4.20;96.60
26541;DHT22;14206;50.202;10.948;2022-12-07T08:34:35;4.20;96.60
26541;DHT22;14206;50.202;10.948;2022-12-07T08:37:02;4.20;96.60
26541;DHT22;14206;50.202;10.948;2022-12-07T08:39:29;4.30;96.60
26541;DHT22;14206;50.202;10.948;2022-12-07T08:41:58;4.30;96.60
26541;DHT22;14206;50.202;10.948;2022-12-07T08:44:25;4.40;96.60
26541;DHT22;14206;50.202;10.948;2022-12-07T08:46:57;4.40;96.60
26541;DHT22;14206;50.202;10.948;2022-12-07T08:49:31;4.30;96.60
26541;DHT22;14206;50.202;10.948;2022-12-07T08:51:59;4.30;96.60
26541;DHT22;14206;50.202;10.948;2022-12-07T08:54:26;4.30;96.60
26541;DHT22;14206;50.202;10.948;2022-12-07T08:56:55;4.20;96.60
26541;DHT22;14206;50.202;10.948;2022-12-07T08:59:26;4.20;96.60
26541;DHT22;14206;50.202;10.948;2022-12-07T09:01:53;4.20;96.60
26541;DHT22;14206;50.202;10.948;2022-12-07T09:04:20;4.20;96.60
26541;DHT22;14206;50.202;10.948;2022-12-07T09:06:47;4.20;96.60
26541;DHT22;14206;50.202;10.948;2022-12-07T09:09:15;4.10;96.60
26541;DHT22;14206;50.202;10.948;2022-12-07T09:11:42;4.10;96.60
26541;DHT22;14206;50.202;10.948;2022-12-07T09:14:08;4.20;96.60
26541;DHT22;14206;50.202;10.948;2022-12-07T09:16:35;4.20;96.60
26541;DHT22;14206;50.202;10.948;2022-12-07T09:19:02;4.30;96.60
26541;DHT22;14206;50.202;10.948;2022-12-07T09:21:29;4.30;96.60
26541;DHT22;14206;50.202;10.948;2022-12-07T09:23:56;4.40;96.60
26541;DHT22;14206;50.202;10.948;2022-12-07T09:26:23;4.50;96.60
26541;DHT22;14206;50.202;10.948;2022-12-07T09:28:50;4.60;96.60
26541;DHT22;14206;50.202;10.948;2022-12-07T09:31:17;4.70;96.60
26541;DHT22;14206;50.202;10.948;2022-12-07T09:33:58;4.80;96.60
26541;DHT22;14206;50.202;10.948;2022-12-07T09:36:26;4.80;96.60
26541;DHT22;14206;50.202;10.948;2022-12-07T09:38:53;4.80;96.60
26541;DHT22;14206;50.202;10.948;2022-12-07T09:41:21;4.80;96.60
26541;DHT22;14206;50.202;10.948;2022-12-07T09:43:49;4.80;96.60
26541;DHT22;14206;50.202;10.948;2022-12-07T09:46:19;4.80;96.60
26541;DHT22;14206;50.202;10.948;2022-12-07T09:48:47;4.80;96.60
26541;DHT22;14206;50.202;10.948;2022-12-07T09:53:50;4.80;96.60
26541;DHT22;14206;50.202;10.948;2022-12-07T09:56:19;4.80;96.60
26541;DHT22;14206;50.202;10.948;2022-12-07T09:58:46;4.80;96.60
26541;DHT22;14206;50.202;10.948;2022-12-07T10:01:18;4.80;96.60
26541;DHT22;14206;50.202;10.948;2022-12-07T10:03:59;4.90;96.60
26541;DHT22;14206;50.202;10.948;2022-12-07T10:06:27;4.90;96.60
26541;DHT22;14206;50.202;10.948;2022-12-07T10:08:54;5.00;96.60
26541;DHT22;14206;50.202;10.948;2022-12-07T10:11:21;5.10;96.60
26541;DHT22;14206;50.202;10.948;2022-12-07T10:13:51;5.30;96.60
26541;DHT22;14206;50.202;10.948;2022-12-07T10:22:11;5.30;96.60
26541;DHT22;14206;50.202;10.948;2022-12-07T10:24:40;5.30;96.60
26541;DHT22;14206;50.202;10.948;2022-12-07T10:27:26;5.30;96.60
26541;DHT22;14206;50.202;10.948;2022-12-07T10:29:57;5.40;96.60
26541;DHT22;14206;50.202;10.948;2022-12-07T10:32:32;5.40;96.60
26541;DHT22;14206;50.202;10.948;2022-12-07T10:37:45;5.40;96.60
26541;DHT22;14206;50.202;10.948;2022-12-07T10:40:34;5.50;96.60
26541;DHT22;14206;50.202;10.948;2022-12-07T10:45:29;5.60;96.60
26541;DHT22;14206;50.202;10.948;2022-12-07T10:48:16;5.60;96.60
26541;DHT22;14206;50.202;10.948;2022-12-07T10:51:18;5.60;96.60
26541;DHT22;14206;50.202;10.948;2022-12-07T10:54:26;5.50;96.60
26541;DHT22;14206;50.202;10.948;2022-12-07T10:59:32;5.40;96.60
26541;DHT22;14206;50.202;10.948;2022-12-07T11:02:24;5.40;96.60
26541;DHT22;14206;50.202;10.948;2022-12-07T11:16:21;5.60;96.60
26541;DHT22;14206;50.202;10.948;2022-12-07T11:21:57;6.00;96.60
26541;DHT22;14206;50.202;10.948;2022-12-07T11:24:35;6.10;96.50
26541;DHT22;14206;50.202;10.948;2022-12-07T11:27:19;6.20;96.30
26541;DHT22;14206;50.202;10.948;2022-12-07T11:32:50;6.60;95.10
26541;DHT22;14206;50.202;10.948;2022-12-07T11:35:26;6.90;95.50
26541;DHT22;14206;50.202;10.948;2022-12-07T11:41:00;7.10;92.30
26541;DHT22;14206;50.202;10.948;2022-12-07T11:43:52;7.10;92.00
26541;DHT22;14206;50.202;10.948;2022-12-07T11:46:23;7.10;92.50
26541;DHT22;14206;50.202;10.948;2022-12-07T11:51:25;7.00;92.50
26541;DHT22;14206;50.202;10.948;2022-12-07T11:54:02;6.90;92.10
26541;DHT22;14206;50.202;10.948;2022-12-07T11:56:30;6.90;92.30
26541;DHT22;14206;50.202;10.948;2022-12-07T12:06:39;7.00;91.50
26541;DHT22;14206;50.202;10.948;2022-12-07T12:18:07;6.90;91.70
26541;DHT22;14206;50.202;10.948;2022-12-07T12:20:56;6.70;92.00
26541;DHT22;14206;50.202;10.948;2022-12-07T12:26:07;6.50;92.70
26541;DHT22;14206;50.202;10.948;2022-12-07T12:28:48;6.60;93.10
26541;DHT22;14206;50.202;10.948;2022-12-07T12:33:57;6.50;92.20
26541;DHT22;14206;50.202;10.948;2022-12-07T12:36:26;6.40;92.90
26541;DHT22;14206;50.202;10.948;2022-12-07T12:46:52;6.20;93.80
26541;DHT22;14206;50.202;10.948;2022-12-07T12:54:22;6.30;93.70
26541;DHT22;14206;50.202;10.948;2022-12-07T12:56:58;6.20;93.60
26541;DHT22;14206;50.202;10.948;2022-12-07T12:59:41;6.20;94.00
26541;DHT22;14206;50.202;10.948;2022-12-07T13:04:56;6.10;94.10
26541;DHT22;14206;50.202;10.948;2022-12-07T13:18:37;5.90;95.10
26541;DHT22;14206;50.202;10.948;2022-12-07T13:31:32;5.50;94.80
26541;DHT22;14206;50.202;10.948;2022-12-07T13:34:01;5.40;96.60
26541;DHT22;14206;50.202;10.948;2022-12-07T13:36:37;5.20;96.10
26541;DHT22;14206;50.202;10.948;2022-12-07T13:39:18;5.10;96.60
26541;DHT22;14206;50.202;10.948;2022-12-07T13:41:50;5.10;96.60
26541;DHT22;14206;50.202;10.948;2022-12-07T13:44:19;5.10;96.60
26541;DHT22;14206;50.202;10.948;2022-12-07T13:49:27;5.00;96.60
26541;DHT22;14206;50.202;10.948;2022-12-07T13:54:48;4.90;96.60
26541;DHT22;14206;50.202;10.948;2022-12-07T13:57:16;4.90;96.60
26541;DHT22;14206;50.202;10.948;2022-12-07T13:59:44;4.90;96.60
26541;DHT22;14206;50.202;10.948;2022-12-07T14:02:24;4.90;96.60
26541;DHT22;14206;50.202;10.948;2022-12-07T14:05:09;5.00;96.60
26541;DHT22;14206;50.202;10.948;2022-12-07T14:10:27;5.10;96.60
26541;DHT22;14206;50.202;10.948;2022-12-07T14:12:56;5.10;96.60
26541;DHT22;14206;50.202;10.948;2022-12-07T14:15:32;5.00;96.60
26541;DHT22;14206;50.202;10.948;2022-12-07T14:18:00;4.80;96.60
26541;DHT22;14206;50.202;10.948;2022-12-07T14:20:40;4.70;96.60
26541;DHT22;14206;50.202;10.948;2022-12-07T14:23:24;4.50;96.60
26541;DHT22;14206;50.202;10.948;2022-12-07T14:25:52;4.30;96.60
26541;DHT22;14206;50.202;10.948;2022-12-07T14:28:27;4.30;96.60
26541;DHT22;14206;50.202;10.948;2022-12-07T14:30:54;4.20;96.60
26541;DHT22;14206;50.202;10.948;2022-12-07T14:33:21;4.10;96.60
26541;DHT22;14206;50.202;10.948;2022-12-07T14:35:48;4.10;96.60
26541;DHT22;14206;50.202;10.948;2022-12-07T14:38:15;4.00;96.60
26541;DHT22;14206;50.202;10.948;2022-12-07T14:40:45;3.90;96.60
26541;DHT22;14206;50.202;10.948;2022-12-07T14:43:13;3.80;96.60
26541;DHT22;14206;50.202;10.948;2022-12-07T14:45:41;3.80;96.60
26541;DHT22;14206;50.202;10.948;2022-12-07T14:48:12;3.80;96.60
26541;DHT22;14206;50.202;10.948;2022-12-07T14:50:59;3.70;96.60
26541;DHT22;14206;50.202;10.948;2022-12-07T14:53:49;3.70;96.60
26541;DHT22;14206;50.202;10.948;2022-12-07T14:56:24;3.60;96.60
26541;DHT22;14206;50.202;10.948;2022-12-07T14:58:51;3.50;96.60
26541;DHT22;14206;50.202;10.948;2022-12-07T15:01:17;3.50;96.60
26541;DHT22;14206;50.202;10.948;2022-12-07T15:03:45;3.50;96.60
26541;DHT22;14206;50.202;10.948;2022-12-07T15:06:16;3.50;96.60
26541;DHT22;14206;50.202;10.948;2022-12-07T15:08:44;3.40;96.60
26541;DHT22;14206;50.202;10.948;2022-12-07T15:11:15;3.40;96.60
26541;DHT22;14206;50.202;10.948;2022-12-07T15:13:42;3.30;96.60
26541;DHT22;14206;50.202;10.948;2022-12-07T15:16:28;3.30;96.60
26541;DHT22;14206;50.202;10.948;2022-12-07T15:19:17;3.30;96.60
26541;DHT22;14206;50.202;10.948;2022-12-07T15:21:55;3.40;96.60
26541;DHT22;14206;50.202;10.948;2022-12-07T15:24:22;3.40;96.60
26541;DHT22;14206;50.202;10.948;2022-12-07T15:26:50;3.50;96.60
26541;DHT22;14206;50.202;10.948;2022-12-07T15:29:18;3.50;96.60
26541;DHT22;14206;50.202;10.948;2022-12-07T15:31:50;3.60;96.60
26541;DHT22;14206;50.202;10.948;2022-12-07T15:34:27;3.60;96.60
26541;DHT22;14206;50.202;10.948;2022-12-07T15:37:05;3.50;96.60
26541;DHT22;14206;50.202;10.948;2022-12-07T15:39:32;3.40;96.60
26541;DHT22;14206;50.202;10.948;2022-12-07T15:41:59;3.30;96.60
26541;DHT22;14206;50.202;10.948;2022-12-07T15:44:26;3.20;96.60
26541;DHT22;14206;50.202;10.948;2022-12-07T15:47:11;3.20;96.60
26541;DHT22;14206;50.202;10.948;2022-12-07T15:49:38;3.10;96.60
26541;DHT22;14206;50.202;10.948;2022-12-07T15:52:04;3.10;96.60
26541;DHT22;14206;50.202;10.948;2022-12-07T15:54:31;3.10;96.60
26541;DHT22;14206;50.202;10.948;2022-12-07T15:56:59;3.10;96.60
26541;DHT22;14206;50.202;10.948;2022-12-07T15:59:27;3.10;96.60
26541;DHT22;14206;50.202;10.948;2022-12-07T16:01:54;3.00;96.60
26541;DHT22;14206;50.202;10.948;2022-12-07T16:04:21;3.00;96.60
26541;DHT22;14206;50.202;10.948;2022-12-07T16:06:48;2.90;96.60
26541;DHT22;14206;50.202;10.948;2022-12-07T16:09:18;2.90;96.60
26541;DHT22;14206;50.202;10.948;2022-12-07T16:11:45;2.90;96.60
26541;DHT22;14206;50.202;10.948;2022-12-07T16:14:12;2.90;96.60
26541;DHT22;14206;50.202;10.948;2022-12-07T16:16:39;3.00;96.60
26541;DHT22;14206;50.202;10.948;2022-12-07T16:19:07;3.00;96.60
26541;DHT22;14206;50.202;10.948;2022-12-07T16:21:35;3.00;96.60
26541;DHT22;14206;50.202;10.948;2022-12-07T16:24:03;3.00;96.60
26541;DHT22;14206;50.202;10.948;2022-12-07T16:26:30;3.10;96.60
26541;DHT22;14206;50.202;10.948;2022-12-07T16:28:57;3.10;96.60
26541;DHT22;14206;50.202;10.948;2022-12-07T16:31:26;3.10;96.60
26541;DHT22;14206;50.202;10.948;2022-12-07T16:33:55;3.20;96.60
26541;DHT22;14206;50.202;10.948;2022-12-07T16:36:23;3.30;96.60
26541;DHT22;14206;50.202;10.948;2022-12-07T16:39:11;3.30;96.60
26541;DHT22;14206;50.202;10.948;2022-12-07T16:41:38;3.30;96.60
26541;DHT22;14206;50.202;10.948;2022-12-07T16:44:07;3.40;96.60
26541;DHT22;14206;50.202;10.948;2022-12-07T16:46:36;3.40;96.60
26541;DHT22;14206;50.202;10.948;2022-12-07T16:49:03;3.40;96.60
26541;DHT22;14206;50.202;10.948;2022-12-07T16:51:31;3.40;96.60
26541;DHT22;14206;50.202;10.948;2022-12-07T16:53:58;3.50;96.60
26541;DHT22;14206;50.202;10.948;2022-12-07T16:56:25;3.50;96.60
26541;DHT22;14206;50.202;10.948;2022-12-07T16:58:53;3.50;96.60
26541;DHT22;14206;50.202;10.948;2022-12-07T17:01:21;3.50;96.60
26541;DHT22;14206;50.202;10.948;2022-12-07T17:03:49;3.60;96.60
26541;DHT22;14206;50.202;10.948;2022-12-07T17:06:19;3.60;96.60
26541;DHT22;14206;50.202;10.948;2022-12-07T17:08:46;3.60;96.60
26541;DHT22;14206;50.202;10.948;2022-12-07T17:13:45;3.60;96.60
26541;DHT22;14206;50.202;10.948;2022-12-07T17:16:30;3.70;96.60
26541;DHT22;14206;50.202;10.948;2022-12-07T17:18:57;3.70;96.60
26541;DHT22;14206;50.202;10.948;2022-12-07T17:21:24;3.70;96.60
26541;DHT22;14206;50.202;10.948;2022-12-07T17:23:51;3.70;96.60
26541;DHT22;14206;50.202;10.948;2022-12-07T17:26:21;3.80;96.60
26541;DHT22;14206;50.202;10.948;2022-12-07T17:28:49;3.80;96.60
26541;DHT22;14206;50.202;10.948;2022-12-07T17:31:18;3.80;96.60
26541;DHT22;14206;50.202;10.948;2022-12-07T17:33:46;3.80;96.60
26541;DHT22;14206;50.202;10.948;2022-12-07T17:36:19;3.90;96.60
26541;DHT22;14206;50.202;10.948;2022-12-07T17:38:47;3.90;96.60
26541;DHT22;14206;50.202;10.948;2022-12-07T17:44:09;3.90;96.60
26541;DHT22;14206;50.202;10.948;2022-12-07T17:46:36;3.90;96.60
26541;DHT22;14206;50.202;10.948;2022-12-07T17:49:04;4.00;96.60
26541;DHT22;14206;50.202;10.948;2022-12-07T17:51:31;3.90;96.60
26541;DHT22;14206;50.202;10.948;2022-12-07T17:54:17;3.90;96.60
26541;DHT22;14206;50.202;10.948;2022-12-07T17:56:45;3.90;96.60
26541;DHT22;14206;50.202;10.948;2022-12-07T17:59:12;4.00;96.60
26541;DHT22;14206;50.202;10.948;2022-12-07T18:01:39;4.00;96.60
26541;DHT22;14206;50.202;10.948;2022-12-07T18:04:07;3.90;96.60
26541;DHT22;14206;50.202;10.948;2022-12-07T18:06:34;3.90;96.60
26541;DHT22;14206;50.202;10.948;2022-12-07T18:09:02;3.90;96.60
26541;DHT22;14206;50.202;10.948;2022-12-07T18:11:29;3.90;96.60
26541;DHT22;14206;50.202;10.948;2022-12-07T18:13:56;3.90;96.60
26541;DHT22;14206;50.202;10.948;2022-12-07T18:16:25;3.90;96.60